Terminal Aerodrome Forecast
Issued by NWS

Home | Current Version | Previous Version | Text Only | Print | Product List | Glossary On
Versions: 1 2 3 4 5 6 7 8 9 10 11 12 13 14 15 16 17 18 19 20 21 22 23
000
FTAK31 PAJN 010534
TAFAWG
TAF
PAWG 010534Z 0106/0206 VRB03KT P6SM FEW005 SCT025 BKN045
     FM011100 00000KT 4SM BR SCT005 BKN015
     FM011700 29006KT P6SM VCSH SCT015 SCT025 OVC050=

USA.gov is the U.S. government's official web portal to all federal, state and local government web resources and services.